Time;durP1;ratioP1;P1;durP2;ratioP2;P2;SDS_P1;SDS_P2;PMS_P1;PMS_P2;Temp;Humidity;BMP_temperature;BMP_pressure;BME280_temperature;BME280_humidity;BME280_pressure;Samples;Min_cycle;Max_cycle;Signal;HPM_P1;HPM_P2
2024/03/20 00:01:57;;;;;;;26.40;14.00;;;;;;;7.19;47.96;100428.02;108229;1252;70663;-66
2024/03/20 00:04:24;;;;;;;25.40;12.70;;;;;;;7.29;47.74;100430.31;108215;1253;73296;-66
2024/03/20 00:06:50;;;;;;;23.50;12.70;;;;;;;7.33;47.61;100426.90;108236;1253;59969;-66
2024/03/20 00:09:19;;;;;;;18.80;10.60;;;;;;;7.31;47.67;100421.88;108277;1253;61195;-67
2024/03/20 00:11:49;;;;;;;20.50;11.70;;;;;;;7.23;47.99;100420.27;108291;1253;74707;-66
2024/03/20 00:14:16;;;;;;;18.80;11.20;;;;;;;7.32;47.98;100416.27;108083;1252;70660;-66
2024/03/20 00:16:42;;;;;;;24.10;13.10;;;;;;;7.32;47.81;100409.80;108261;1252;72414;-66
2024/03/20 00:19:09;;;;;;;23.50;12.70;;;;;;;7.24;47.91;100411.70;108298;1252;61864;-67
2024/03/20 00:21:36;;;;;;;48.20;18.10;;;;;;;7.23;48.08;100412.06;108235;1252;61127;-66
2024/03/20 00:24:03;;;;;;;116.10;30.10;;;;;;;7.26;47.97;100409.41;108238;1253;75009;-66
2024/03/20 00:26:30;;;;;;;53.80;20.00;;;;;;;7.39;47.78;100408.80;108241;1253;69256;-66
2024/03/20 00:28:57;;;;;;;32.50;15.10;;;;;;;7.40;47.71;100404.23;108060;1258;73358;-66
2024/03/20 00:31:23;;;;;;;27.10;13.00;;;;;;;7.51;47.18;100402.27;108204;1256;61073;-66
2024/03/20 00:33:50;;;;;;;21.50;11.40;;;;;;;7.57;47.02;100400.05;108251;1256;61242;-67
2024/03/20 00:36:16;;;;;;;51.40;18.40;;;;;;;7.49;47.12;100399.52;108183;1253;75025;-67
2024/03/20 00:38:43;;;;;;;35.70;15.10;;;;;;;7.48;47.03;100397.62;108276;1253;61222;-66
2024/03/20 00:41:09;;;;;;;45.70;16.70;;;;;;;7.52;46.89;100398.94;108225;1252;73139;-66
2024/03/20 00:43:36;;;;;;;61.60;21.80;;;;;;;7.40;46.92;100397.42;108177;1253;61746;-66
2024/03/20 00:46:03;;;;;;;39.10;14.60;;;;;;;7.50;46.95;100397.94;108235;1253;61183;-66
2024/03/20 00:48:29;;;;;;;28.70;13.90;;;;;;;7.47;46.86;100398.35;108233;1253;74717;-66
2024/03/20 00:50:56;;;;;;;24.80;13.10;;;;;;;7.40;46.99;100399.88;108211;1253;70792;-66
2024/03/20 00:53:23;;;;;;;21.40;12.80;;;;;;;7.49;46.89;100400.56;108252;1253;72473;-67
2024/03/20 00:55:49;;;;;;;18.80;11.10;;;;;;;7.46;46.93;100395.73;108202;1256;61344;-66
2024/03/20 00:58:16;;;;;;;22.90;10.90;;;;;;;7.47;47.05;100388.56;108197;1253;61266;-66
2024/03/20 01:00:44;;;;;;;22.70;12.10;;;;;;;7.48;46.98;100392.20;108243;1253;74909;-66
2024/03/20 01:06:35;;;;;;;30.20;14.00;;;;;;;4.85;53.69;100400.56;104840;1303;600443;-67
2024/03/20 01:09:05;;;;;;;29.90;13.50;;;;;;;6.35;49.44;100397.17;107406;1264;61945;-67
2024/03/20 01:11:32;;;;;;;24.20;12.70;;;;;;;6.46;48.97;100400.84;108252;1253;60133;-67
2024/03/20 01:13:58;;;;;;;24.60;13.10;;;;;;;6.43;48.98;100397.39;108248;1253;72922;-67
2024/03/20 01:16:28;;;;;;;23.40;13.00;;;;;;;6.39;49.02;100399.73;108127;1254;59653;-66
2024/03/20 01:18:55;;;;;;;23.20;12.30;;;;;;;6.17;49.44;100399.17;108124;1251;160670;-66
2024/03/20 01:21:22;;;;;;;18.80;11.90;;;;;;;6.09;49.74;100398.09;108150;1251;61969;-66
2024/03/20 01:23:48;;;;;;;22.20;11.10;;;;;;;6.11;49.71;100396.14;108124;1254;60052;-66
2024/03/20 01:26:15;;;;;;;20.00;9.00;;;;;;;6.27;49.39;100391.19;108132;1251;59615;-66
2024/03/20 01:28:41;;;;;;;25.40;11.80;;;;;;;6.23;49.29;100393.34;108171;1251;59514;-66
2024/03/20 01:31:08;;;;;;;21.60;11.50;;;;;;;6.12;49.56;100392.10;108181;1254;73428;-66
2024/03/20 01:33:34;;;;;;;19.80;12.00;;;;;;;6.00;49.71;100394.20;108195;1251;59588;-66
2024/03/20 01:36:01;;;;;;;26.30;11.70;;;;;;;5.95;49.98;100391.99;108179;1252;60446;-66
2024/03/20 01:38:28;;;;;;;19.60;10.30;;;;;;;5.77;50.34;100389.60;108165;1254;73850;-66
2024/03/20 01:40:54;;;;;;;27.00;11.60;;;;;;;5.75;50.38;100391.72;108108;1253;60302;-66
2024/03/20 01:43:21;;;;;;;22.50;12.10;;;;;;;5.81;50.31;100394.09;108153;1254;60424;-66
2024/03/20 01:45:48;;;;;;;25.40;12.20;;;;;;;5.88;50.30;100392.59;108199;1254;61591;-66
2024/03/20 01:48:15;;;;;;;20.60;11.00;;;;;;;5.65;50.77;100392.19;108148;1253;60433;-66
2024/03/20 01:50:42;;;;;;;21.60;11.90;;;;;;;5.60;50.89;100394.52;108249;1254;71454;-66
2024/03/20 01:53:09;;;;;;;25.10;11.80;;;;;;;5.39;51.32;100391.11;108224;1254;70263;-66
2024/03/20 01:55:36;;;;;;;19.60;11.10;;;;;;;5.47;51.25;100382.83;108220;1254;72931;-67
2024/03/20 01:58:03;;;;;;;19.30;11.00;;;;;;;5.45;51.31;100378.86;108162;1253;60775;-66
2024/03/20 02:00:30;;;;;;;22.00;11.50;;;;;;;5.49;51.34;100374.45;108229;1254;60409;-66
2024/03/20 02:03:01;;;;;;;21.90;12.40;;;;;;;5.51;51.32;100374.61;108279;1252;73068;-67
2024/03/20 02:05:28;;;;;;;23.90;11.80;;;;;;;5.51;51.30;100371.48;108153;1254;70276;-67
2024/03/20 02:07:55;;;;;;;22.80;11.70;;;;;;;5.60;51.10;100377.98;108210;1253;70965;-68
2024/03/20 02:10:22;;;;;;;22.30;11.40;;;;;;;5.56;51.08;100373.84;108186;1252;60957;-66
2024/03/20 02:13:00;;;;;;;23.10;12.90;;;;;;;5.53;51.44;100373.70;108154;1252;60219;-66
2024/03/20 02:15:26;;;;;;;19.80;10.80;;;;;;;5.54;51.51;100370.73;108225;1254;73646;-67
2024/03/20 02:17:53;;;;;;;23.40;11.60;;;;;;;5.65;51.37;100366.23;108179;1254;68879;-67
2024/03/20 02:20:20;;;;;;;20.10;10.80;;;;;;;5.68;51.30;100364.63;108222;1253;72555;-67
2024/03/20 02:22:46;;;;;;;17.90;10.10;;;;;;;5.71;51.29;100361.28;108250;1253;60395;-67
2024/03/20 02:25:13;;;;;;;19.20;10.90;;;;;;;5.66;51.37;100364.83;108145;1254;60335;-67
2024/03/20 02:27:39;;;;;;;20.70;10.70;;;;;;;5.58;51.32;100358.48;108129;1256;60311;-67
2024/03/20 02:30:10;;;;;;;21.60;11.00;;;;;;;5.40;51.78;100356.80;108183;1254;70008;-67
2024/03/20 02:32:37;;;;;;;23.80;11.50;;;;;;;5.41;52.00;100362.88;108232;1254;72528;-66
2024/03/20 02:35:04;;;;;;;24.00;11.50;;;;;;;5.47;52.16;100368.38;108284;1253;60318;-67
2024/03/20 02:37:31;;;;;;;22.90;11.10;;;;;;;5.48;52.08;100368.89;108190;1253;60357;-66
2024/03/20 02:39:58;;;;;;;24.70;12.60;;;;;;;5.61;52.17;100370.65;108179;1256;74144;-67
2024/03/20 02:42:24;;;;;;;28.50;12.30;;;;;;;5.65;52.27;100378.08;108111;1254;70164;-66
2024/03/20 02:44:51;;;;;;;33.30;15.10;;;;;;;5.64;52.50;100375.83;108206;1256;73104;-66
2024/03/20 02:47:18;;;;;;;21.10;10.50;;;;;;;5.67;52.92;100370.21;108142;1253;62400;-66
2024/03/20 02:49:47;;;;;;;22.80;10.90;;;;;;;5.87;52.58;100366.83;108089;1254;60296;-66
2024/03/20 02:52:13;;;;;;;27.20;12.40;;;;;;;6.08;52.40;100366.20;108244;1254;73844;-66
2024/03/20 02:54:41;;;;;;;24.50;12.40;;;;;;;6.17;52.19;100370.58;108115;1257;70864;-66
2024/03/20 02:57:07;;;;;;;26.20;12.70;;;;;;;6.24;52.00;100369.27;108181;1252;71106;-66
2024/03/20 02:59:34;;;;;;;26.80;12.60;;;;;;;6.42;51.86;100369.33;108124;1253;60408;-67
2024/03/20 03:02:00;;;;;;;22.50;11.00;;;;;;;6.37;52.07;100369.07;108345;1253;60424;-67
2024/03/20 03:04:27;;;;;;;22.20;11.30;;;;;;;6.43;52.13;100374.19;108257;1254;60289;-66
2024/03/20 03:06:54;;;;;;;26.70;11.80;;;;;;;6.47;52.23;100371.70;108150;1253;60308;-67
2024/03/20 03:09:21;;;;;;;23.50;11.90;;;;;;;6.46;52.42;100366.82;108162;1253;72448;-67
2024/03/20 03:11:47;;;;;;;31.00;13.40;;;;;;;6.54;52.13;100365.13;108144;1253;61147;-66
2024/03/20 03:14:15;;;;;;;28.60;13.10;;;;;;;6.63;52.20;100364.96;108240;1253;60379;-66
2024/03/20 03:16:41;;;;;;;26.50;12.70;;;;;;;6.64;52.30;100369.85;108095;1257;72684;-66
2024/03/20 03:19:09;;;;;;;25.60;13.30;;;;;;;6.66;52.21;100368.25;108194;1253;58241;-66
2024/03/20 03:21:36;;;;;;;24.30;11.40;;;;;;;6.63;52.37;100370.89;108137;1253;72471;-67
2024/03/20 03:24:04;;;;;;;24.40;11.50;;;;;;;6.49;52.55;100367.81;108171;1256;61777;-66
2024/03/20 03:26:34;;;;;;;26.80;11.20;;;;;;;6.62;52.54;100369.17;108218;1254;60271;-66
2024/03/20 03:29:00;;;;;;;35.00;14.20;;;;;;;6.68;52.50;100369.08;108228;1253;73812;-66
2024/03/20 03:31:27;;;;;;;25.10;12.40;;;;;;;6.70;52.56;100374.80;108214;1253;70148;-66
2024/03/20 03:33:54;;;;;;;24.50;11.40;;;;;;;6.69;52.72;100373.60;108181;1254;60974;-67
2024/03/20 03:36:20;;;;;;;33.90;13.60;;;;;;;6.73;52.75;100378.77;108247;1253;58879;-67
2024/03/20 03:38:46;;;;;;;28.20;12.90;;;;;;;6.74;53.14;100380.86;108051;1253;61163;-66
2024/03/20 03:41:13;;;;;;;26.40;11.90;;;;;;;6.84;52.99;100383.80;108169;1254;60424;-66
2024/03/20 03:43:43;;;;;;;35.90;14.90;;;;;;;7.04;52.84;100378.56;108200;1254;70529;-66
2024/03/20 03:46:09;;;;;;;31.00;12.70;;;;;;;7.13;52.95;100379.61;108158;1253;60367;-67
2024/03/20 03:48:37;;;;;;;38.00;15.30;;;;;;;7.29;52.86;100378.95;108172;1253;61756;-66
2024/03/20 03:51:04;;;;;;;35.90;15.80;;;;;;;7.40;52.87;100382.58;108187;1254;60810;-66
2024/03/20 03:53:31;;;;;;;38.10;15.60;;;;;;;7.51;52.76;100388.64;108202;1254;72155;-66
2024/03/20 03:55:57;;;;;;;44.40;18.00;;;;;;;7.52;52.94;100389.33;108239;1253;70375;-66
2024/03/20 03:58:24;;;;;;;26.10;11.90;;;;;;;7.57;53.08;100386.79;108239;1253;73168;-66
2024/03/20 04:00:50;;;;;;;33.40;13.50;;;;;;;7.83;52.96;100383.45;108281;1254;61994;-66
2024/03/20 04:03:21;;;;;;;42.70;17.20;;;;;;;7.97;53.08;100386.12;108204;1253;59325;-66
2024/03/20 04:05:48;;;;;;;;;;;;;;;7.89;53.64;100385.39;108363;1254;74023;-66
2024/03/20 04:08:14;;;;;;;33.90;14.90;;;;;;;7.97;53.73;100386.29;108277;1253;71326;-66
2024/03/20 04:10:41;;;;;;;33.90;14.10;;;;;;;8.04;53.72;100388.23;108256;1254;72999;-66
2024/03/20 04:13:07;;;;;;;32.00;13.40;;;;;;;8.03;54.20;100387.20;108239;1253;60962;-66
2024/03/20 04:15:34;;;;;;;41.10;17.60;;;;;;;8.15;54.04;100386.58;108266;1254;60389;-66
2024/03/20 04:18:00;;;;;;;29.20;12.80;;;;;;;8.37;53.78;100378.20;108189;1254;73139;-66
2024/03/20 04:20:27;;;;;;;45.20;18.10;;;;;;;8.41;53.74;100374.27;108193;1254;71138;-66
2024/03/20 04:22:54;;;;;;;48.00;17.80;;;;;;;8.45;53.88;100378.73;108147;1254;73385;-65
2024/03/20 04:25:20;;;;;;;38.10;15.60;;;;;;;8.41;54.05;100384.92;108106;1253;60846;-66
2024/03/20 04:27:47;;;;;;;49.30;18.50;;;;;;;8.43;54.02;100389.27;108174;1253;60316;-66
2024/03/20 04:30:13;;;;;;;40.00;15.40;;;;;;;8.51;53.95;100394.67;108108;1254;74251;-66
2024/03/20 04:32:41;;;;;;;39.10;16.20;;;;;;;8.56;54.09;100394.38;108254;1254;70724;-66
2024/03/20 04:35:08;;;;;;;45.50;15.80;;;;;;;8.56;54.17;100398.39;108319;1253;73023;-66
2024/03/20 04:37:35;;;;;;;37.90;15.80;;;;;;;8.57;54.41;100393.84;108104;1253;60969;-66
2024/03/20 04:40:03;;;;;;;39.00;15.60;;;;;;;8.55;54.43;100392.30;108232;1256;60696;-66
2024/03/20 04:42:30;;;;;;;47.80;15.70;;;;;;;8.58;54.48;100397.13;108249;1253;74201;-66
2024/03/20 04:44:57;;;;;;;40.90;16.20;;;;;;;8.66;54.38;100397.98;108218;1254;70731;-66
2024/03/20 04:47:23;;;;;;;42.80;16.10;;;;;;;8.70;54.31;100403.30;108216;1254;72754;-66
2024/03/20 04:49:53;;;;;;;36.50;16.40;;;;;;;8.79;54.30;100406.41;108207;1254;61148;-66
2024/03/20 04:52:19;;;;;;;43.90;16.90;;;;;;;8.88;54.13;100413.02;108230;1254;60371;-66
2024/03/20 04:54:46;;;;;;;36.50;13.90;;;;;;;8.89;54.12;100418.95;108073;1253;74126;-66
2024/03/20 04:57:13;;;;;;;37.50;15.90;;;;;;;8.99;53.91;100423.23;108236;1253;60388;-66
2024/03/20 04:59:39;;;;;;;36.40;16.20;;;;;;;9.10;53.76;100425.58;108188;1252;72624;-66
2024/03/20 05:02:06;;;;;;;32.50;13.50;;;;;;;9.14;53.97;100430.02;108389;1253;60425;-66
2024/03/20 05:04:32;;;;;;;33.90;14.10;;;;;;;9.23;53.77;100429.08;108229;1254;60213;-66
2024/03/20 05:06:59;;;;;;;38.20;14.20;;;;;;;9.20;53.94;100432.34;108254;1253;60424;-66
2024/03/20 05:09:25;;;;;;;27.10;12.90;;;;;;;9.17;54.18;100432.94;108069;1253;60281;-66
2024/03/20 05:11:52;;;;;;;29.60;12.60;;;;;;;9.28;53.97;100431.59;108175;1253;72749;-65
2024/03/20 05:14:19;;;;;;;40.20;13.20;;;;;;;9.31;53.84;100431.84;108172;1253;61084;-66
2024/03/20 05:16:45;;;;;;;34.70;13.40;;;;;;;9.37;53.67;100434.32;108256;1253;61231;-66
2024/03/20 05:19:12;;;;;;;31.40;12.10;;;;;;;9.30;53.60;100444.33;108382;1254;74436;-66
2024/03/20 05:21:38;;;;;;;26.60;11.70;;;;;;;9.21;53.58;100445.27;108262;1253;70895;-66
2024/03/20 05:24:05;;;;;;;22.30;12.00;;;;;;;9.08;53.84;100447.70;108248;1253;72157;-66
2024/03/20 05:26:32;;;;;;;19.70;10.50;;;;;;;9.13;53.51;100450.89;108285;1254;61130;-65
2024/03/20 05:28:59;;;;;;;27.70;12.70;;;;;;;8.95;53.98;100449.79;108340;1253;61154;-65
2024/03/20 05:31:27;;;;;;;27.70;12.60;;;;;;;8.85;54.35;100453.88;108373;1253;75386;-65
2024/03/20 05:33:54;;;;;;;33.20;12.50;;;;;;;9.00;53.97;100454.55;108492;1254;70500;-66
2024/03/20 05:36:21;;;;;;;31.10;15.50;;;;;;;9.15;53.97;100453.84;108340;1252;73496;-66
2024/03/20 05:38:47;;;;;;;29.30;15.20;;;;;;;9.27;53.75;100455.61;108251;1253;61343;-66
2024/03/20 05:41:14;;;;;;;24.40;12.20;;;;;;;9.44;53.56;100454.63;108327;1253;59173;-66
2024/03/20 05:43:41;;;;;;;28.00;13.50;;;;;;;9.57;53.48;100452.00;108293;1254;74433;-67
2024/03/20 05:46:11;;;;;;;34.00;13.70;;;;;;;9.73;53.27;100452.09;108237;1254;70181;-67
2024/03/20 05:48:37;;;;;;;28.80;13.70;;;;;;;9.69;53.45;100452.71;108154;1252;72793;-66
2024/03/20 05:51:04;;;;;;;25.10;11.90;;;;;;;9.71;53.56;100447.92;108246;1253;61328;-66
2024/03/20 05:53:31;;;;;;;25.50;12.70;;;;;;;9.63;53.95;100451.48;108264;1254;61272;-66
2024/03/20 05:55:58;;;;;;;24.20;12.40;;;;;;;9.64;54.03;100451.28;108267;1252;74629;-66
2024/03/20 05:58:25;;;;;;;19.50;10.30;;;;;;;9.68;54.13;100449.23;108273;1253;70330;-66
2024/03/20 06:00:52;;;;;;;23.60;11.30;;;;;;;9.64;54.19;100445.86;108250;1253;72548;-66
2024/03/20 06:03:18;;;;;;;27.20;13.20;;;;;;;9.60;54.41;100447.55;108216;1253;61214;-67
2024/03/20 06:05:46;;;;;;;28.30;12.60;;;;;;;9.68;54.46;100449.59;108227;1252;59342;-66
2024/03/20 06:08:14;;;;;;;24.40;13.30;;;;;;;9.77;54.48;100445.84;108409;1253;75140;-66
2024/03/20 06:10:40;;;;;;;20.90;11.00;;;;;;;9.93;54.24;100440.79;108299;1253;70263;-67
2024/03/20 06:13:08;;;;;;;24.30;10.80;;;;;;;10.14;53.85;100437.73;108354;1254;71255;-67
2024/03/20 06:15:35;;;;;;;26.20;11.10;;;;;;;10.16;53.75;100436.23;108306;1253;61126;-67
2024/03/20 06:18:02;;;;;;;24.10;11.80;;;;;;;10.29;53.59;100443.07;108331;1254;61212;-67
2024/03/20 06:20:30;;;;;;;22.50;12.30;;;;;;;10.54;53.09;100448.65;108280;1252;74609;-66
2024/03/20 06:22:57;;;;;;;22.00;11.70;;;;;;;10.52;52.75;100452.91;108310;1253;70189;-66
2024/03/20 06:25:24;;;;;;;37.30;13.30;;;;;;;10.56;52.97;100458.58;108259;1253;73156;-66
2024/03/20 06:27:50;;;;;;;21.10;11.10;;;;;;;10.72;52.70;100457.89;108261;1253;60929;-66
2024/03/20 06:30:17;;;;;;;22.50;11.70;;;;;;;10.79;52.30;100460.48;108244;1252;61237;-67
2024/03/20 06:32:44;;;;;;;26.80;12.80;;;;;;;10.84;52.16;100455.73;108209;1254;74475;-67
2024/03/20 06:35:11;;;;;;;17.90;10.70;;;;;;;10.85;52.32;100459.05;108208;1252;70123;-65
2024/03/20 06:37:37;;;;;;;36.10;15.40;;;;;;;10.84;52.28;100456.25;108294;1253;70423;-66
2024/03/20 06:40:14;;;;;;;22.80;12.90;;;;;;;10.94;51.83;100456.98;108230;1253;60851;-66
2024/03/20 06:42:42;;;;;;;25.40;12.80;;;;;;;10.93;51.73;100463.88;108256;1253;61288;-66
2024/03/20 06:45:09;;;;;;;20.20;11.50;;;;;;;10.82;51.78;100474.79;108276;1254;74457;-66
2024/03/20 06:47:35;;;;;;;23.40;12.90;;;;;;;10.67;52.02;100489.31;108308;1253;70313;-66
2024/03/20 06:50:02;;;;;;;18.40;10.60;;;;;;;10.76;51.61;100490.61;108314;1252;61273;-66
2024/03/20 06:52:38;;;;;;;28.70;14.90;;;;;;;10.62;51.85;100488.23;108284;1253;61182;-66
2024/03/20 06:55:07;;;;;;;30.10;15.60;;;;;;;10.53;52.03;100486.92;108281;1256;61301;-66
2024/03/20 06:57:34;;;;;;;21.70;11.10;;;;;;;10.57;52.07;100481.38;108278;1254;74330;-66
2024/03/20 07:00:00;;;;;;;20.90;10.70;;;;;;;10.64;52.11;100483.05;108299;1253;70616;-66
2024/03/20 07:02:27;;;;;;;19.80;10.90;;;;;;;10.67;51.90;100485.09;108214;1252;72678;-66
2024/03/20 07:04:55;;;;;;;21.30;11.50;;;;;;;10.64;51.90;100481.16;108284;1252;61142;-66
2024/03/20 07:07:21;;;;;;;24.00;12.60;;;;;;;10.66;51.97;100483.91;108280;1253;61100;-66
2024/03/20 07:09:48;;;;;;;16.20;10.10;;;;;;;10.49;52.15;100487.74;108372;1253;74706;-66
2024/03/20 07:12:15;;;;;;;17.10;9.80;;;;;;;10.44;52.46;100488.79;108089;1254;70960;-66
2024/03/20 07:14:42;;;;;;;16.10;9.80;;;;;;;10.57;52.22;100483.83;108295;1253;71705;-66
2024/03/20 07:17:09;;;;;;;17.40;10.40;;;;;;;10.67;52.07;100477.35;108270;1256;62334;-65
2024/03/20 07:19:35;;;;;;;19.60;9.40;;;;;;;10.68;51.83;100478.02;108354;1252;61179;-66
2024/03/20 07:22:02;;;;;;;17.90;9.80;;;;;;;10.60;51.61;100470.56;108331;1252;74233;-66
2024/03/20 07:24:29;;;;;;;16.40;9.50;;;;;;;10.76;51.37;100470.23;108380;1256;68984;-67
2024/03/20 07:26:56;;;;;;;17.90;10.10;;;;;;;10.85;51.48;100465.38;108230;1252;72915;-67
2024/03/20 07:29:23;;;;;;;17.00;9.60;;;;;;;10.94;51.49;100464.71;108254;1254;61333;-66
2024/03/20 07:31:50;;;;;;;18.30;9.40;;;;;;;11.00;51.51;100460.47;108343;1256;61189;-67
2024/03/20 07:34:17;;;;;;;15.90;8.80;;;;;;;11.19;51.44;100452.28;108358;1254;74596;-67
2024/03/20 07:36:43;;;;;;;23.60;13.00;;;;;;;11.39;51.47;100450.38;108341;1253;70579;-67
2024/03/20 07:39:11;;;;;;;19.50;10.60;;;;;;;11.54;51.20;100449.82;108294;1254;72384;-67
2024/03/20 07:41:38;;;;;;;18.40;9.70;;;;;;;11.71;51.02;100448.52;108262;1252;61247;-66
2024/03/20 07:44:05;;;;;;;20.00;11.30;;;;;;;11.92;50.53;100444.23;108243;1256;61782;-67
2024/03/20 07:46:31;;;;;;;18.20;9.70;;;;;;;11.97;50.10;100449.70;108292;1253;72219;-67
2024/03/20 07:48:58;;;;;;;19.90;10.30;;;;;;;11.91;50.10;100450.63;108246;1254;70273;-67
2024/03/20 07:51:25;;;;;;;20.40;10.30;;;;;;;11.98;49.74;100454.05;108249;1253;71528;-67
2024/03/20 07:53:51;;;;;;;18.30;10.60;;;;;;;12.13;49.36;100452.09;108210;1252;62632;-66
2024/03/20 07:56:18;;;;;;;21.70;11.10;;;;;;;12.06;49.34;100449.02;108325;1252;61144;-66
2024/03/20 07:58:44;;;;;;;17.70;9.70;;;;;;;12.02;49.51;100445.11;108301;1256;73435;-66
2024/03/20 08:01:11;;;;;;;18.40;10.00;;;;;;;12.15;49.45;100440.05;108288;1256;71664;-66
2024/03/20 08:03:39;;;;;;;18.10;9.60;;;;;;;12.26;49.15;100437.30;108139;1253;72722;-67
2024/03/20 08:06:05;;;;;;;19.90;10.40;;;;;;;12.29;48.80;100439.46;108353;1252;61301;-67
2024/03/20 08:08:32;;;;;;;20.90;11.00;;;;;;;12.21;49.08;100437.49;108393;1252;60590;-67
2024/03/20 08:10:59;;;;;;;23.90;11.50;;;;;;;12.27;48.80;100431.30;108288;1253;74602;-67
2024/03/20 08:13:26;;;;;;;24.10;11.00;;;;;;;12.33;48.60;100434.59;108188;1253;70870;-66
2024/03/20 08:15:53;;;;;;;20.50;10.60;;;;;;;12.36;48.57;100431.11;108235;1254;73844;-67
2024/03/20 08:18:20;;;;;;;16.20;9.10;;;;;;;12.35;48.63;100438.91;108332;1253;59842;-67
2024/03/20 08:20:48;;;;;;;24.70;11.80;;;;;;;12.18;48.93;100435.19;108300;1256;61161;-66
2024/03/20 08:23:14;;;;;;;24.50;11.60;;;;;;;12.18;48.92;100438.70;108212;1254;75390;-67
2024/03/20 08:25:41;;;;;;;21.40;11.40;;;;;;;12.25;48.94;100437.00;108253;1253;70396;-67
2024/03/20 08:28:08;;;;;;;21.80;11.00;;;;;;;12.30;48.86;100442.23;108268;1254;73181;-67
2024/03/20 08:30:38;;;;;;;18.00;9.40;;;;;;;12.29;48.81;100447.05;108256;1252;62227;-67
2024/03/20 08:33:05;;;;;;;24.60;11.40;;;;;;;12.20;48.75;100444.60;108130;1253;61172;-67
2024/03/20 08:35:31;;;;;;;25.50;13.10;;;;;;;12.12;48.80;100444.21;108296;1254;75710;-67
2024/03/20 08:37:58;;;;;;;22.20;10.40;;;;;;;12.10;48.83;100446.73;108273;1253;70526;-67
2024/03/20 08:40:25;;;;;;;27.40;12.70;;;;;;;12.07;49.01;100446.86;108291;1254;71599;-67
2024/03/20 08:42:51;;;;;;;28.70;12.90;;;;;;;12.12;49.00;100448.62;108216;1252;61237;-66
2024/03/20 08:45:18;;;;;;;23.00;11.80;;;;;;;12.18;48.99;100446.23;108278;1254;60360;-66
2024/03/20 08:47:47;;;;;;;26.30;12.60;;;;;;;12.24;49.02;100447.25;108269;1253;76334;-66
2024/03/20 08:50:14;;;;;;;25.70;11.40;;;;;;;12.20;49.09;100446.16;108209;1253;69488;-67
2024/03/20 08:52:41;;;;;;;29.10;12.90;;;;;;;12.09;49.22;100449.77;108257;1253;71557;-66
2024/03/20 08:55:08;;;;;;;23.00;11.90;;;;;;;12.16;49.12;100445.08;108177;1254;61340;-66
2024/03/20 08:57:35;;;;;;;24.40;11.90;;;;;;;12.09;49.24;100447.83;108272;1253;59743;-66
2024/03/20 09:00:08;;;;;;;24.00;12.60;;;;;;;12.09;49.58;100448.54;108216;1254;73366;-66
2024/03/20 09:02:36;;;;;;;27.10;12.50;;;;;;;12.10;49.72;100453.95;108269;1253;69530;-66
2024/03/20 09:05:03;;;;;;;28.00;12.90;;;;;;;12.21;49.73;100457.92;108235;1253;71802;-66
2024/03/20 09:07:30;;;;;;;24.20;11.00;;;;;;;12.26;49.74;100455.79;108310;1252;61109;-66
2024/03/20 09:09:57;;;;;;;21.80;11.30;;;;;;;12.25;49.68;100459.00;108377;1253;61106;-66
2024/03/20 09:12:23;;;;;;;23.30;12.30;;;;;;;12.31;49.45;100456.28;108270;1252;74305;-66
2024/03/20 09:14:50;;;;;;;21.70;12.10;;;;;;;12.21;49.74;100461.27;108282;1253;69105;-67
2024/03/20 09:17:17;;;;;;;29.70;14.50;;;;;;;12.08;49.92;100461.05;108271;1252;72646;-66
2024/03/20 09:19:44;;;;;;;26.50;13.50;;;;;;;12.14;50.05;100457.14;108214;1254;61113;-66
2024/03/20 09:22:10;;;;;;;23.70;11.80;;;;;;;12.16;50.04;100461.65;108211;1253;61983;-66
2024/03/20 09:24:37;;;;;;;27.00;13.70;;;;;;;12.22;50.18;100459.83;108058;1253;76081;-67
2024/03/20 09:27:04;;;;;;;26.20;13.60;;;;;;;12.26;50.09;100457.17;108169;1254;70285;-66
2024/03/20 09:29:33;;;;;;;20.00;10.70;;;;;;;12.33;50.10;100455.67;108176;1253;71302;-67
2024/03/20 09:31:59;;;;;;;29.40;15.10;;;;;;;12.48;49.76;100454.06;108209;1254;61477;-66
2024/03/20 09:34:26;;;;;;;27.80;12.50;;;;;;;12.44;50.10;100452.66;108242;1252;61136;-66
2024/03/20 09:36:55;;;;;;;28.00;13.90;;;;;;;12.58;49.96;100451.35;108309;1253;74728;-67
2024/03/20 09:39:21;;;;;;;24.00;12.60;;;;;;;12.59;49.87;100448.18;108330;1252;70337;-66
2024/03/20 09:41:48;;;;;;;30.40;13.70;;;;;;;12.52;50.02;100445.64;108346;1253;71213;-66
2024/03/20 09:44:15;;;;;;;28.20;14.10;;;;;;;12.54;50.17;100446.45;108053;1252;61119;-66
2024/03/20 09:46:41;;;;;;;25.60;13.50;;;;;;;12.61;49.89;100443.86;108155;1253;61134;-67
2024/03/20 09:49:08;;;;;;;27.00;12.90;;;;;;;12.57;49.90;100443.16;108121;1254;73909;-67
2024/03/20 09:51:35;;;;;;;21.20;12.00;;;;;;;12.59;49.92;100444.13;108302;1256;71633;-67
2024/03/20 09:54:02;;;;;;;23.60;11.20;;;;;;;12.64;49.84;100446.02;108282;1256;72588;-67
2024/03/20 09:56:29;;;;;;;22.80;11.40;;;;;;;12.67;49.80;100440.96;108126;1253;61429;-68
2024/03/20 09:58:56;;;;;;;23.50;11.70;;;;;;;12.71;49.81;100436.92;108062;1254;60994;-67
2024/03/20 10:01:22;;;;;;;21.50;10.00;;;;;;;12.64;49.98;100432.12;108227;1254;74862;-67
2024/03/20 10:03:53;;;;;;;21.70;10.90;;;;;;;12.69;50.13;100431.35;108317;1253;69790;-68
2024/03/20 10:06:27;;;;;;;18.60;9.70;;;;;;;12.71;50.02;100432.71;108300;1254;71512;-68
2024/03/20 10:08:53;;;;;;;20.00;11.40;;;;;;;12.74;50.03;100434.16;108270;1253;62252;-68
2024/03/20 10:11:20;;;;;;;18.60;10.00;;;;;;;12.71;50.31;100433.76;108335;1253;59363;-67
2024/03/20 10:13:47;;;;;;;18.40;10.40;;;;;;;12.68;50.19;100430.53;108303;1256;74557;-67
2024/03/20 10:16:14;;;;;;;19.70;10.20;;;;;;;12.82;49.68;100432.97;108283;1256;69523;-67
2024/03/20 10:18:52;;;;;;;15.50;8.60;;;;;;;12.74;50.11;100428.34;108267;1254;72046;-67
2024/03/20 10:21:19;;;;;;;21.30;9.90;;;;;;;12.70;50.10;100428.85;108199;1253;61328;-67
2024/03/20 10:23:46;;;;;;;16.70;8.10;;;;;;;12.68;50.04;100430.55;108144;1253;60476;-68
2024/03/20 10:26:13;;;;;;;14.60;8.10;;;;;;;12.68;50.02;100429.27;108153;1254;74530;-67
2024/03/20 10:28:41;;;;;;;14.20;8.10;;;;;;;12.93;49.37;100425.80;108213;1256;70138;-67
2024/03/20 10:31:10;;;;;;;15.50;7.90;;;;;;;12.98;49.18;100424.55;108188;1256;72686;-68
2024/03/20 10:33:49;;;;;;;13.50;7.40;;;;;;;13.01;49.24;100418.60;108124;1253;61148;-67
2024/03/20 10:36:18;;;;;;;18.30;8.40;;;;;;;13.06;49.37;100421.02;108225;1252;61215;-68
2024/03/20 10:38:44;;;;;;;13.90;7.00;;;;;;;13.12;49.29;100420.06;108372;1252;74660;-66
2024/03/20 10:41:12;;;;;;;13.30;7.40;;;;;;;13.21;49.13;100422.12;108317;1254;68748;-67
2024/03/20 10:43:38;;;;;;;13.90;7.10;;;;;;;13.28;48.91;100421.16;108313;1252;71796;-67
2024/03/20 10:46:11;;;;;;;11.80;6.60;;;;;;;13.27;48.95;100418.36;108269;1256;61065;-67
2024/03/20 10:48:38;;;;;;;10.20;6.40;;;;;;;13.34;48.94;100415.63;108195;1252;61109;-67
2024/03/20 10:51:05;;;;;;;11.10;5.50;;;;;;;13.28;48.77;100410.06;108129;1254;73391;-67
2024/03/20 10:53:31;;;;;;;9.00;5.20;;;;;;;13.19;48.83;100409.34;108297;1254;70441;-68
2024/03/20 10:55:58;;;;;;;11.30;5.30;;;;;;;13.26;48.74;100406.27;108339;1254;71440;-67
2024/03/20 10:58:25;;;;;;;8.70;5.20;;;;;;;13.29;48.51;100404.38;108204;1253;62296;-67
2024/03/20 11:00:53;;;;;;;9.50;5.10;;;;;;;13.25;48.77;100398.91;108147;1254;61110;-67
2024/03/20 11:03:42;;;;;;;9.00;5.40;;;;;;;13.32;48.82;100395.42;108242;1253;74908;-68
2024/03/20 11:06:38;;;;;;;7.00;4.00;;;;;;;13.33;48.80;100398.73;108332;1254;69828;-68
2024/03/20 11:09:06;;;;;;;5.70;3.90;;;;;;;13.14;48.85;100396.00;108310;1254;72704;-68
2024/03/20 11:11:33;;;;;;;7.30;4.10;;;;;;;12.95;49.10;100396.29;108182;1253;61126;-67